Villa del Sagrado Corazon, Puerto Rico
Current Conditions -  °F | °C
As of 8:53 AM on Wednesday 26 Nov 2014 (Local Time) from TJIG Reporting Station
Light Rain Light Rain  
Wind Chill: 79°   Ceiling: 4000
Heat Index: 82°   Visibility: 8mi
Dew Point: 73°   Wind: 12mph
Humidity: 83%   Direction: 150°SSE
Pressure: 30.08"   Gusts: NA
Location:  18.0093°N, 66.6209°W
Report Text: TJIG 261253Z 15010KT 8SM -RA SCT020 BKN040 26/23 A3008 RMK RY09 IN USE ATIS D
Loading
Personal Weather Stations






























Interactive Weather Map New forecast layout! Learn more

10-Day Weather Forecast

Advertisements
Track Severe Weather on mobile